Time;durP1;ratioP1;P1;durP2;ratioP2;P2;SDS_P1;SDS_P2;PMS_P1;PMS_P2;Temp;Humidity;BMP_temperature;BMP_pressure;BME280_temperature;BME280_humidity;BME280_pressure;Samples;Min_cycle;Max_cycle;Signal;HPM_P1;HPM_P2
2021/09/13 00:02:02;;;;;;;10.45;6.97;;;;;;;;;;5089066;28;20039;-60
2021/09/13 00:04:27;;;;;;;9.77;6.43;;;;;;;;;;5075877;28;20020;-60
2021/09/13 00:06:52;;;;;;;6.75;6.13;;;;;;;;;;5083982;28;20509;-60
2021/09/13 00:09:17;;;;;;;7.28;6.57;;;;;;;;;;5074210;28;20032;-60
2021/09/13 00:11:42;;;;;;;6.57;5.78;;;;;;;;;;5087896;28;20024;-60
2021/09/13 00:14:08;;;;;;;7.78;6.28;;;;;;;;;;5093620;28;20110;-60
2021/09/13 00:16:33;;;;;;;7.25;6.45;;;;;;;;;;5073626;28;20028;-60
2021/09/13 00:18:59;;;;;;;7.57;6.00;;;;;;;;;;5087041;28;20058;-60
2021/09/13 00:21:24;;;;;;;8.88;7.38;;;;;;;;;;5082330;28;20055;-60
2021/09/13 00:23:49;;;;;;;9.38;6.68;;;;;;;;;;5073552;28;20048;-60
2021/09/13 00:26:14;;;;;;;8.68;7.88;;;;;;;;;;5087384;28;20070;-60
2021/09/13 00:28:39;;;;;;;8.02;7.25;;;;;;;;;;5082251;28;20027;-60
2021/09/13 00:31:04;;;;;;;8.97;7.13;;;;;;;;;;5080292;28;20390;-60
2021/09/13 00:33:30;;;;;;;8.10;7.30;;;;;;;;;;5082919;28;20304;-60
2021/09/13 00:35:55;;;;;;;8.52;7.72;;;;;;;;;;5083084;28;20023;-60
2021/09/13 00:38:20;;;;;;;8.20;7.30;;;;;;;;;;5091613;28;20020;-60
2021/09/13 00:40:45;;;;;;;8.75;7.75;;;;;;;;;;5081051;28;20032;-60
2021/09/13 00:43:11;;;;;;;9.88;7.60;;;;;;;;;;5078072;28;20062;-60
2021/09/13 00:45:36;;;;;;;10.40;7.85;;;;;;;;;;5091684;28;20028;-60
2021/09/13 00:48:02;;;;;;;10.02;7.18;;;;;;;;;;5089712;28;20052;-60
2021/09/13 00:50:27;;;;;;;8.43;7.63;;;;;;;;;;5087091;28;20048;-60
2021/09/13 00:52:53;;;;;;;10.43;7.20;;;;;;;;;;5085892;28;20016;-60
2021/09/13 00:55:19;;;;;;;8.55;7.65;;;;;;;;;;5083595;28;20432;-60
2021/09/13 00:57:44;;;;;;;9.10;8.20;;;;;;;;;;5082751;28;20012;-60
2021/09/13 01:00:10;;;;;;;11.23;7.10;;;;;;;;;;5073739;28;20200;-60
2021/09/13 01:02:35;;;;;;;8.65;7.72;;;;;;;;;;5088463;28;20019;-60
2021/09/13 01:05:01;;;;;;;8.32;7.03;;;;;;;;;;5086755;28;20020;-60
2021/09/13 01:07:26;;;;;;;8.65;7.72;;;;;;;;;;5083607;28;20390;-60
2021/09/13 01:09:51;;;;;;;8.25;6.75;;;;;;;;;;5079126;28;20028;-60
2021/09/13 01:12:17;;;;;;;9.63;7.38;;;;;;;;;;5092949;28;20016;-60
2021/09/13 01:14:42;;;;;;;8.20;7.28;;;;;;;;;;5084844;28;20043;-60
2021/09/13 01:17:08;;;;;;;8.13;7.32;;;;;;;;;;5072837;28;20021;-60
2021/09/13 01:19:33;;;;;;;7.90;7.13;;;;;;;;;;5072558;28;20052;-60
2021/09/13 01:22:00;;;;;;;7.97;7.10;;;;;;;;;;5074899;28;20024;-60
2021/09/13 01:24:26;;;;;;;8.25;6.75;;;;;;;;;;5086748;28;20082;-60
2021/09/13 01:26:52;;;;;;;7.57;6.68;;;;;;;;;;5081439;28;20030;-60
2021/09/13 01:29:17;;;;;;;7.55;6.53;;;;;;;;;;5090943;28;20386;-60
2021/09/13 01:31:42;;;;;;;6.50;5.85;;;;;;;;;;5075700;28;20032;-60
2021/09/13 01:34:07;;;;;;;10.23;6.82;;;;;;;;;;5073196;28;20471;-60
2021/09/13 01:36:32;;;;;;;9.48;7.05;;;;;;;;;;5085240;28;20038;-60
2021/09/13 01:38:58;;;;;;;9.52;6.72;;;;;;;;;;5072371;28;20049;-60
2021/09/13 01:41:23;;;;;;;8.95;6.68;;;;;;;;;;5076134;28;20054;-60
2021/09/13 01:43:48;;;;;;;8.32;6.70;;;;;;;;;;5083112;28;20111;-61
2021/09/13 01:46:14;;;;;;;8.68;6.65;;;;;;;;;;5074142;28;20102;-61
2021/09/13 01:48:39;;;;;;;6.72;6.00;;;;;;;;;;5072344;28;20016;-61
2021/09/13 01:51:04;;;;;;;10.55;7.00;;;;;;;;;;5073333;28;20029;-59
2021/09/13 01:53:29;;;;;;;8.20;6.50;;;;;;;;;;5081009;28;20024;-59
2021/09/13 01:55:55;;;;;;;7.38;6.60;;;;;;;;;;5091702;28;20539;-60
2021/09/13 01:58:20;;;;;;;6.93;6.18;;;;;;;;;;5079367;28;20107;-60
2021/09/13 02:00:45;;;;;;;6.65;6.05;;;;;;;;;;5072807;28;20028;-60
2021/09/13 02:03:11;;;;;;;6.45;5.43;;;;;;;;;;5071822;28;20033;-59
2021/09/13 02:05:36;;;;;;;7.50;5.93;;;;;;;;;;5072216;28;20021;-59
2021/09/13 02:08:01;;;;;;;6.60;5.90;;;;;;;;;;5085757;28;20099;-59
2021/09/13 02:10:26;;;;;;;7.43;5.85;;;;;;;;;;5071684;28;20046;-59
2021/09/13 02:12:51;;;;;;;8.27;5.97;;;;;;;;;;5071860;28;20027;-60
2021/09/13 02:15:17;;;;;;;9.05;6.45;;;;;;;;;;5086702;28;20020;-60
2021/09/13 02:17:42;;;;;;;7.57;6.47;;;;;;;;;;5090198;28;20020;-60
2021/09/13 02:20:07;;;;;;;7.57;6.45;;;;;;;;;;5072096;28;20025;-60
2021/09/13 02:22:32;;;;;;;7.05;6.35;;;;;;;;;;5078040;28;20485;-59
2021/09/13 02:24:58;;;;;;;6.10;5.40;;;;;;;;;;5077505;28;20035;-60
2021/09/13 02:27:23;;;;;;;7.20;6.50;;;;;;;;;;5073035;28;20012;-60
2021/09/13 02:29:48;;;;;;;7.03;6.32;;;;;;;;;;5071405;28;20352;-60
2021/09/13 02:32:13;;;;;;;6.85;6.15;;;;;;;;;;5070280;28;20031;-60
2021/09/13 02:34:38;;;;;;;7.57;6.32;;;;;;;;;;5083560;28;20028;-60
2021/09/13 02:37:04;;;;;;;7.35;6.57;;;;;;;;;;5074026;28;20074;-60
2021/09/13 02:39:29;;;;;;;8.35;6.40;;;;;;;;;;5081362;28;20027;-61
2021/09/13 02:41:54;;;;;;;8.88;6.38;;;;;;;;;;5091442;28;20023;-60
2021/09/13 02:44:19;;;;;;;7.53;6.03;;;;;;;;;;5091413;28;20024;-60
2021/09/13 02:46:45;;;;;;;8.07;6.47;;;;;;;;;;5089851;28;20432;-60
2021/09/13 02:49:10;;;;;;;7.65;6.25;;;;;;;;;;5092649;28;20027;-60
2021/09/13 02:51:35;;;;;;;6.20;5.60;;;;;;;;;;5090753;28;20031;-60
2021/09/13 02:54:00;;;;;;;9.00;5.88;;;;;;;;;;5074775;28;20556;-60
2021/09/13 02:56:25;;;;;;;6.93;5.32;;;;;;;;;;5086152;28;20023;-60
2021/09/13 02:58:51;;;;;;;6.28;5.68;;;;;;;;;;5089902;28;20028;-60
2021/09/13 03:01:16;;;;;;;6.57;5.60;;;;;;;;;;5078005;28;20048;-60
2021/09/13 03:03:42;;;;;;;7.85;5.97;;;;;;;;;;5072453;28;20123;-60
2021/09/13 03:06:08;;;;;;;6.80;5.70;;;;;;;;;;5078351;28;20462;-60
2021/09/13 03:08:34;;;;;;;8.10;5.82;;;;;;;;;;5078764;28;20042;-60
2021/09/13 03:10:59;;;;;;;7.90;6.45;;;;;;;;;;5076983;28;20029;-60
2021/09/13 03:13:24;;;;;;;7.03;6.10;;;;;;;;;;5071206;28;20397;-60
2021/09/13 03:15:49;;;;;;;6.85;5.90;;;;;;;;;;5070981;28;20499;-60
2021/09/13 03:18:14;;;;;;;7.90;5.97;;;;;;;;;;5073101;28;20458;-60
2021/09/13 03:20:40;;;;;;;7.68;5.80;;;;;;;;;;5089365;28;20140;-61
2021/09/13 03:23:05;;;;;;;7.22;5.65;;;;;;;;;;5081954;28;20482;-61
2021/09/13 03:25:31;;;;;;;5.75;5.20;;;;;;;;;;5076230;28;20423;-61
2021/09/13 03:27:58;;;;;;;7.03;6.25;;;;;;;;;;5078441;28;20043;-61
2021/09/13 03:30:23;;;;;;;7.07;5.82;;;;;;;;;;5085586;28;20024;-60
2021/09/13 03:32:48;;;;;;;8.43;5.72;;;;;;;;;;5084136;28;20024;-61
2021/09/13 03:35:13;;;;;;;6.25;5.65;;;;;;;;;;5074921;28;20013;-61
2021/09/13 03:37:39;;;;;;;7.13;5.78;;;;;;;;;;5081343;28;20047;-61
2021/09/13 03:40:05;;;;;;;6.68;6.07;;;;;;;;;;5088943;28;20026;-61
2021/09/13 03:42:30;;;;;;;6.80;6.07;;;;;;;;;;5089528;28;20028;-59
2021/09/13 03:44:55;;;;;;;7.15;6.07;;;;;;;;;;5077680;28;20033;-60
2021/09/13 03:47:20;;;;;;;6.30;5.68;;;;;;;;;;5084144;28;20013;-60
2021/09/13 03:49:45;;;;;;;5.40;4.90;;;;;;;;;;5093560;28;20069;-60
2021/09/13 03:52:10;;;;;;;6.18;5.20;;;;;;;;;;5093329;28;20477;-60
2021/09/13 03:54:36;;;;;;;5.88;5.28;;;;;;;;;;5077733;28;20017;-60
2021/09/13 03:57:01;;;;;;;6.68;5.05;;;;;;;;;;5074271;28;20032;-59
2021/09/13 03:59:26;;;;;;;6.82;5.55;;;;;;;;;;5090456;28;20021;-60
2021/09/13 04:01:52;;;;;;;5.82;5.22;;;;;;;;;;5093735;28;20474;-60
2021/09/13 04:04:21;;;;;;;5.30;4.80;;;;;;;;;;5075929;28;20027;-60
2021/09/13 04:06:50;;;;;;;6.68;5.97;;;;;;;;;;5074048;28;20070;-59
2021/09/13 04:11:53;;;;;;;6.78;5.82;;;;;;;;;;5079887;28;20029;-59
2021/09/13 04:14:18;;;;;;;7.72;6.28;;;;;;;;;;5080199;28;20537;-60
2021/09/13 04:16:44;;;;;;;7.75;6.25;;;;;;;;;;5077579;28;20119;-61
2021/09/13 04:19:09;;;;;;;6.68;5.72;;;;;;;;;;5081986;28;20534;-61
2021/09/13 04:21:34;;;;;;;7.35;6.50;;;;;;;;;;5073739;28;20104;-60
2021/09/13 04:23:59;;;;;;;6.78;5.65;;;;;;;;;;5079958;28;20121;-59
2021/09/13 04:26:24;;;;;;;7.88;5.68;;;;;;;;;;5093963;28;20103;-60
2021/09/13 04:28:50;;;;;;;6.13;5.53;;;;;;;;;;5078436;28;20024;-60
2021/09/13 04:31:15;;;;;;;7.85;6.30;;;;;;;;;;5075208;28;20031;-60
2021/09/13 04:33:40;;;;;;;7.30;5.60;;;;;;;;;;5090357;28;20055;-61
2021/09/13 04:36:05;;;;;;;7.30;6.07;;;;;;;;;;5093032;28;20032;-61
2021/09/13 04:38:31;;;;;;;6.75;6.05;;;;;;;;;;5079659;28;20024;-60
2021/09/13 04:40:56;;;;;;;7.43;6.68;;;;;;;;;;5075442;28;20543;-60
2021/09/13 04:43:21;;;;;;;7.85;6.28;;;;;;;;;;5087144;28;20533;-60
2021/09/13 04:45:46;;;;;;;7.93;6.60;;;;;;;;;;5092730;28;20092;-60
2021/09/13 04:48:11;;;;;;;7.68;6.80;;;;;;;;;;5086691;28;20053;-60
2021/09/13 04:50:37;;;;;;;7.20;6.22;;;;;;;;;;5081074;28;20463;-59
2021/09/13 04:53:02;;;;;;;8.10;6.80;;;;;;;;;;5073149;28;20109;-60
2021/09/13 04:55:27;;;;;;;9.43;7.80;;;;;;;;;;5091368;28;20020;-60
2021/09/13 04:57:52;;;;;;;9.52;7.03;;;;;;;;;;5091864;28;20016;-59
2021/09/13 05:00:20;;;;;;;8.50;6.38;;;;;;;;;;5086425;28;20020;-59
2021/09/13 05:02:46;;;;;;;8.55;6.00;;;;;;;;;;5081827;28;20531;-60
2021/09/13 05:05:11;;;;;;;13.05;6.93;;;;;;;;;;5090368;28;20033;-60
2021/09/13 05:07:36;;;;;;;9.25;5.60;;;;;;;;;;5084433;28;20029;-60
2021/09/13 05:10:01;;;;;;;8.35;5.68;;;;;;;;;;5072601;28;20024;-61
2021/09/13 05:12:27;;;;;;;7.68;5.25;;;;;;;;;;5072798;28;20029;-60
2021/09/13 05:14:52;;;;;;;8.27;5.57;;;;;;;;;;5072237;28;20065;-61
2021/09/13 05:17:17;;;;;;;6.60;5.90;;;;;;;;;;5080439;28;20034;-61
2021/09/13 05:19:42;;;;;;;8.93;6.45;;;;;;;;;;5078690;28;20032;-61
2021/09/13 05:22:07;;;;;;;8.52;6.40;;;;;;;;;;5080906;28;20023;-60
2021/09/13 05:24:33;;;;;;;10.23;7.82;;;;;;;;;;5077431;28;20067;-62
2021/09/13 05:26:58;;;;;;;9.95;6.78;;;;;;;;;;5072488;28;20059;-61
2021/09/13 05:29:23;;;;;;;7.68;6.72;;;;;;;;;;5072142;28;20058;-61
2021/09/13 05:31:48;;;;;;;9.15;6.85;;;;;;;;;;5072010;28;20050;-61
2021/09/13 05:34:14;;;;;;;8.73;6.90;;;;;;;;;;5080754;28;20398;-61
2021/09/13 05:36:39;;;;;;;9.82;7.32;;;;;;;;;;5078082;28;20039;-61
2021/09/13 05:39:04;;;;;;;7.95;7.00;;;;;;;;;;5083249;28;20095;-61
2021/09/13 05:41:29;;;;;;;8.52;7.28;;;;;;;;;;5071786;28;20390;-61
2021/09/13 05:43:54;;;;;;;7.22;6.53;;;;;;;;;;5071590;28;20034;-61
2021/09/13 05:46:20;;;;;;;8.05;7.15;;;;;;;;;;5077610;28;20402;-61
2021/09/13 05:48:45;;;;;;;11.80;7.82;;;;;;;;;;5085540;28;20012;-61
2021/09/13 05:51:10;;;;;;;10.02;7.53;;;;;;;;;;5080760;28;20016;-61
2021/09/13 05:53:35;;;;;;;10.77;7.90;;;;;;;;;;5075968;28;20094;-60
2021/09/13 05:56:00;;;;;;;12.70;8.88;;;;;;;;;;5072217;28;20445;-61
2021/09/13 05:58:26;;;;;;;7.30;6.60;;;;;;;;;;5075744;28;20024;-62
2021/09/13 06:00:51;;;;;;;8.55;6.90;;;;;;;;;;5091501;28;20027;-61
2021/09/13 06:03:16;;;;;;;9.70;7.18;;;;;;;;;;5081599;28;20060;-60
2021/09/13 06:05:41;;;;;;;11.57;7.55;;;;;;;;;;5085250;28;20031;-61
2021/09/13 06:08:07;;;;;;;8.20;7.15;;;;;;;;;;5075275;28;20035;-61
2021/09/13 06:10:32;;;;;;;8.32;7.53;;;;;;;;;;5076062;28;20029;-60
2021/09/13 06:12:57;;;;;;;9.50;8.43;;;;;;;;;;5089957;28;20069;-61
2021/09/13 06:15:22;;;;;;;8.93;7.90;;;;;;;;;;5072897;28;20056;-61
2021/09/13 06:17:48;;;;;;;11.35;7.97;;;;;;;;;;5072898;28;20043;-61
2021/09/13 06:20:13;;;;;;;7.97;7.00;;;;;;;;;;5084219;28;20015;-61
2021/09/13 06:22:38;;;;;;;7.88;7.07;;;;;;;;;;5091475;28;20020;-61
2021/09/13 06:25:04;;;;;;;8.55;6.85;;;;;;;;;;5085114;28;20027;-61
2021/09/13 06:27:29;;;;;;;7.40;6.68;;;;;;;;;;5090443;28;20475;-60
2021/09/13 06:29:54;;;;;;;8.20;7.15;;;;;;;;;;5091882;28;20014;-58
2021/09/13 06:32:20;;;;;;;8.75;7.32;;;;;;;;;;5077584;28;20024;-59
2021/09/13 06:34:45;;;;;;;8.25;6.93;;;;;;;;;;5071573;28;20500;-60
2021/09/13 06:37:10;;;;;;;8.73;7.80;;;;;;;;;;5071601;28;20036;-60
2021/09/13 06:39:36;;;;;;;8.00;7.20;;;;;;;;;;5071600;28;20020;-60
2021/09/13 06:42:01;;;;;;;9.35;6.50;;;;;;;;;;5070956;28;20040;-60
2021/09/13 06:44:26;;;;;;;7.70;6.90;;;;;;;;;;5080382;28;20024;-60
2021/09/13 06:47:07;;;;;;;8.52;7.72;;;;;;;;;;5074998;28;20241;-62
2021/09/13 06:49:32;;;;;;;9.18;7.32;;;;;;;;;;5071317;28;20418;-62
2021/09/13 06:51:58;;;;;;;7.90;7.10;;;;;;;;;;5078389;28;20103;-60
2021/09/13 06:54:23;;;;;;;10.40;7.50;;;;;;;;;;5081587;28;20016;-60
2021/09/13 06:56:48;;;;;;;9.00;7.95;;;;;;;;;;5071963;28;20502;-60
2021/09/13 06:59:14;;;;;;;9.77;7.10;;;;;;;;;;5070865;28;20032;-59
2021/09/13 07:01:39;;;;;;;10.45;7.47;;;;;;;;;;5070856;28;20028;-59
2021/09/13 07:04:05;;;;;;;9.15;8.35;;;;;;;;;;5076149;28;20016;-59
2021/09/13 07:06:30;;;;;;;9.20;8.30;;;;;;;;;;5093367;28;20103;-60
2021/09/13 07:08:56;;;;;;;9.32;8.15;;;;;;;;;;5095431;28;20431;-60
2021/09/13 07:11:21;;;;;;;9.07;8.18;;;;;;;;;;5080524;28;20028;-60
2021/09/13 07:13:47;;;;;;;9.27;7.90;;;;;;;;;;5082645;28;20069;-60
2021/09/13 07:16:12;;;;;;;9.10;8.20;;;;;;;;;;5073918;28;20482;-60
2021/09/13 07:18:37;;;;;;;9.25;8.35;;;;;;;;;;5074956;28;20097;-60
2021/09/13 07:21:02;;;;;;;9.07;8.25;;;;;;;;;;5086978;28;20151;-60
2021/09/13 07:23:28;;;;;;;9.75;8.75;;;;;;;;;;5092263;28;20391;-59
2021/09/13 07:25:53;;;;;;;9.90;8.90;;;;;;;;;;5093398;28;20024;-60
2021/09/13 07:28:20;;;;;;;8.98;7.78;;;;;;;;;;5080195;28;20028;-60
2021/09/13 07:30:45;;;;;;;9.75;7.20;;;;;;;;;;5074382;28;20028;-60
2021/09/13 07:33:11;;;;;;;8.80;7.60;;;;;;;;;;5074226;28;20035;-59
2021/09/13 07:35:36;;;;;;;7.97;7.13;;;;;;;;;;5074274;28;20533;-60
2021/09/13 07:38:01;;;;;;;10.27;8.02;;;;;;;;;;5074359;28;20305;-60
2021/09/13 07:40:26;;;;;;;8.25;7.47;;;;;;;;;;5074672;28;20096;-61
2021/09/13 07:42:51;;;;;;;9.90;8.07;;;;;;;;;;5078074;28;20099;-61
2021/09/13 07:45:17;;;;;;;8.90;8.05;;;;;;;;;;5079770;28;20104;-61
2021/09/13 07:47:42;;;;;;;8.25;7.38;;;;;;;;;;5074308;28;20020;-60
2021/09/13 07:50:07;;;;;;;11.32;8.30;;;;;;;;;;5074145;28;20100;-61
2021/09/13 07:52:33;;;;;;;8.75;7.85;;;;;;;;;;5084576;28;20028;-61
2021/09/13 07:54:58;;;;;;;9.30;8.32;;;;;;;;;;5093587;28;20016;-61
2021/09/13 07:57:24;;;;;;;8.60;7.80;;;;;;;;;;5082069;28;20492;-60
2021/09/13 07:59:49;;;;;;;8.13;7.25;;;;;;;;;;5090340;28;20420;-61
2021/09/13 08:02:15;;;;;;;10.70;8.77;;;;;;;;;;5087028;28;20043;-60
2021/09/13 08:04:40;;;;;;;10.18;8.45;;;;;;;;;;5089720;28;20278;-60
2021/09/13 08:07:06;;;;;;;7.90;7.07;;;;;;;;;;5074059;28;20048;-60
2021/09/13 08:09:31;;;;;;;9.00;8.10;;;;;;;;;;5073611;28;20494;-60
2021/09/13 08:11:56;;;;;;;9.38;8.43;;;;;;;;;;5073484;28;20095;-60
2021/09/13 08:14:22;;;;;;;8.18;7.40;;;;;;;;;;5073498;28;20058;-61
2021/09/13 08:16:47;;;;;;;8.75;7.85;;;;;;;;;;5072957;28;20024;-60
2021/09/13 08:19:12;;;;;;;8.43;7.50;;;;;;;;;;5075799;28;20081;-60
2021/09/13 08:21:40;;;;;;;8.23;7.38;;;;;;;;;;5073110;28;20529;-60
2021/09/13 08:24:06;;;;;;;8.52;7.60;;;;;;;;;;5077994;28;20044;-60
2021/09/13 08:26:32;;;;;;;8.02;7.22;;;;;;;;;;5074899;28;20477;-60
2021/09/13 08:28:57;;;;;;;8.65;7.82;;;;;;;;;;5076747;28;20149;-60
2021/09/13 08:31:26;;;;;;;8.45;7.07;;;;;;;;;;5092277;28;20497;-59
2021/09/13 08:33:52;;;;;;;7.53;6.80;;;;;;;;;;5073340;28;20040;-60
2021/09/13 08:36:17;;;;;;;8.00;7.25;;;;;;;;;;5086131;28;20024;-60
2021/09/13 08:38:42;;;;;;;7.90;7.10;;;;;;;;;;5088489;28;20367;-60
2021/09/13 08:41:08;;;;;;;8.93;7.50;;;;;;;;;;5073127;28;20029;-60
2021/09/13 08:43:33;;;;;;;8.43;7.65;;;;;;;;;;5072938;28;20063;-60
2021/09/13 08:46:07;;;;;;;8.68;7.25;;;;;;;;;;5075816;28;20016;-60
2021/09/13 08:48:37;;;;;;;9.70;8.00;;;;;;;;;;5076109;28;20146;-60
2021/09/13 08:53:31;;;;;;;8.52;7.53;;;;;;;;;;5073459;28;20078;-61
2021/09/13 08:55:57;;;;;;;8.50;7.70;;;;;;;;;;5073059;28;20028;-61
2021/09/13 08:58:23;;;;;;;7.72;6.55;;;;;;;;;;5072753;28;20078;-61
2021/09/13 09:00:49;;;;;;;9.15;8.15;;;;;;;;;;5072440;28;20039;-61
2021/09/13 09:03:14;;;;;;;9.73;8.68;;;;;;;;;;5072597;28;20115;-59
2021/09/13 09:05:41;;;;;;;10.38;9.35;;;;;;;;;;5073023;28;20029;-60
2021/09/13 09:08:10;;;;;;;9.65;8.65;;;;;;;;;;5074416;28;20483;-59
2021/09/13 09:10:35;;;;;;;9.27;8.43;;;;;;;;;;5089263;28;20046;-59
2021/09/13 09:13:08;;;;;;;10.52;8.73;;;;;;;;;;5092716;28;20020;-59
2021/09/13 09:15:34;;;;;;;10.23;9.25;;;;;;;;;;5085617;28;20538;-59
2021/09/13 09:18:00;;;;;;;9.90;9.00;;;;;;;;;;5072660;28;20107;-59
2021/09/13 09:20:25;;;;;;;9.75;8.75;;;;;;;;;;5072677;28;20017;-59
2021/09/13 09:23:00;;;;;;;8.63;7.82;;;;;;;;;;5072088;28;20119;-59
2021/09/13 09:25:33;;;;;;;8.68;7.82;;;;;;;;;;5072301;28;20017;-59
2021/09/13 09:28:02;;;;;;;9.90;8.88;;;;;;;;;;5080798;28;20012;-59
2021/09/13 09:30:34;;;;;;;9.52;8.57;;;;;;;;;;5082269;28;20051;-59
2021/09/13 09:33:05;;;;;;;10.93;8.75;;;;;;;;;;5092397;28;20016;-59
2021/09/13 09:35:39;;;;;;;9.80;8.82;;;;;;;;;;5092318;28;20024;-59
2021/09/13 09:38:04;;;;;;;10.05;9.18;;;;;;;;;;5075739;28;20081;-59
2021/09/13 09:40:32;;;;;;;9.93;9.03;;;;;;;;;;5091241;28;20118;-60
2021/09/13 09:43:01;;;;;;;9.25;8.35;;;;;;;;;;5077027;28;20278;-60
2021/09/13 09:45:27;;;;;;;10.95;9.88;;;;;;;;;;5081334;28;20043;-60
2021/09/13 09:48:05;;;;;;;11.40;10.30;;;;;;;;;;5090805;28;20469;-60
2021/09/13 09:50:30;;;;;;;10.82;9.68;;;;;;;;;;5071648;28;20088;-61
2021/09/13 09:53:12;;;;;;;12.27;11.07;;;;;;;;;;5072027;28;20073;-61
2021/09/13 09:55:37;;;;;;;11.10;10.00;;;;;;;;;;5072218;28;20024;-60
2021/09/13 09:58:05;;;;;;;10.80;9.80;;;;;;;;;;5073156;28;20096;-61
2021/09/13 10:00:30;;;;;;;11.85;10.57;;;;;;;;;;5074690;28;20329;-60
2021/09/13 10:02:56;;;;;;;12.82;9.98;;;;;;;;;;5074907;28;20150;-58
2021/09/13 10:05:22;;;;;;;10.98;10.00;;;;;;;;;;5071801;28;20036;-60
2021/09/13 10:07:48;;;;;;;13.23;10.60;;;;;;;;;;5074436;28;20020;-60
2021/09/13 10:10:13;;;;;;;12.20;11.00;;;;;;;;;;5070369;28;20020;-60
2021/09/13 10:12:39;;;;;;;10.25;9.25;;;;;;;;;;5085203;28;20518;-59
2021/09/13 10:15:04;;;;;;;11.18;10.15;;;;;;;;;;5071335;28;20032;-59
2021/09/13 10:17:30;;;;;;;10.88;9.77;;;;;;;;;;5074581;28;20016;-59
2021/09/13 10:19:55;;;;;;;11.57;10.38;;;;;;;;;;5074798;28;20035;-60
2021/09/13 10:22:20;;;;;;;9.90;9.02;;;;;;;;;;5071444;28;20034;-60
2021/09/13 10:24:47;;;;;;;8.00;7.30;;;;;;;;;;5075096;28;20059;-60
2021/09/13 10:27:17;;;;;;;9.10;7.68;;;;;;;;;;5077732;28;20031;-60
2021/09/13 10:29:42;;;;;;;7.68;6.88;;;;;;;;;;5071415;28;20016;-60
2021/09/13 10:32:09;;;;;;;7.75;6.15;;;;;;;;;;5070873;28;20021;-60
2021/09/13 10:34:40;;;;;;;4.85;4.38;;;;;;;;;;5071965;28;20021;-60
2021/09/13 10:37:10;;;;;;;5.57;4.68;;;;;;;;;;5071739;28;20078;-60
2021/09/13 10:39:47;;;;;;;6.20;5.60;;;;;;;;;;5074235;28;20024;-60
2021/09/13 10:42:32;;;;;;;6.97;6.38;;;;;;;;;;5083786;28;20030;-60
2021/09/13 10:45:30;;;;;;;6.80;6.10;;;;;;;;;;5075648;28;20088;-60
2021/09/13 10:47:58;;;;;;;7.25;6.60;;;;;;;;;;5046040;28;20399;-60
2021/09/13 10:50:32;;;;;;;7.95;5.47;;;;;;;;;;5081526;28;20351;-60
2021/09/13 10:52:58;;;;;;;5.30;4.80;;;;;;;;;;5094052;28;20016;-61
2021/09/13 10:55:26;;;;;;;5.72;5.22;;;;;;;;;;5094782;28;20496;-60
2021/09/13 10:57:55;;;;;;;8.32;4.80;;;;;;;;;;5088485;28;20058;-61
2021/09/13 11:00:50;;;;;;;4.97;4.57;;;;;;;;;;5090810;28;20115;-60
2021/09/13 11:03:34;;;;;;;6.80;5.47;;;;;;;;;;5076355;28;20062;-59
2021/09/13 11:06:11;;;;;;;6.30;5.68;;;;;;;;;;5075250;28;20016;-60
2021/09/13 11:08:41;;;;;;;5.18;4.78;;;;;;;;;;5085924;28;20024;-60
2021/09/13 11:11:10;;;;;;;6.22;5.63;;;;;;;;;;5083312;28;20039;-59
2021/09/13 11:13:35;;;;;;;6.35;5.75;;;;;;;;;;5094595;28;20044;-59
2021/09/13 11:16:00;;;;;;;7.00;6.32;;;;;;;;;;5089622;28;20109;-60
2021/09/13 11:18:33;;;;;;;6.38;5.20;;;;;;;;;;5079456;28;20024;-60
2021/09/13 11:21:14;;;;;;;6.25;5.03;;;;;;;;;;5078287;28;20069;-60
2021/09/13 11:23:39;;;;;;;14.40;5.38;;;;;;;;;;5074573;28;20048;-61
2021/09/13 11:26:05;;;;;;;5.43;4.50;;;;;;;;;;5081162;28;20021;-60
2021/09/13 11:28:30;;;;;;;5.00;2.90;;;;;;;;;;5090232;28;20492;-60
2021/09/13 11:30:55;;;;;;;6.00;4.23;;;;;;;;;;5092348;28;20328;-60
2021/09/13 11:33:20;;;;;;;5.50;4.33;;;;;;;;;;5094616;28;20027;-60
2021/09/13 11:35:45;;;;;;;4.90;4.50;;;;;;;;;;5083295;28;20070;-60
2021/09/13 11:38:11;;;;;;;5.60;4.83;;;;;;;;;;5072973;28;20016;-61
2021/09/13 11:40:36;;;;;;;4.47;4.07;;;;;;;;;;5075539;28;20091;-61
2021/09/13 11:43:11;;;;;;;4.03;3.73;;;;;;;;;;5088632;28;20027;-60
2021/09/13 11:45:36;;;;;;;4.75;4.35;;;;;;;;;;5085657;28;20031;-60
2021/09/13 11:48:05;;;;;;;5.23;4.50;;;;;;;;;;5085811;28;20016;-60
2021/09/13 11:50:31;;;;;;;5.53;3.85;;;;;;;;;;5088321;28;20074;-60
2021/09/13 11:52:56;;;;;;;3.80;3.40;;;;;;;;;;5074789;28;20021;-59
2021/09/13 11:55:23;;;;;;;3.87;3.13;;;;;;;;;;5075641;28;20353;-60
2021/09/13 11:57:50;;;;;;;2.50;2.30;;;;;;;;;;5084151;28;20277;-61
2021/09/13 12:00:21;;;;;;;2.25;2.05;;;;;;;;;;5079018;28;20025;-61
2021/09/13 12:02:48;;;;;;;3.25;2.10;;;;;;;;;;5091105;28;20016;-61
2021/09/13 12:05:17;;;;;;;3.10;2.80;;;;;;;;;;5081898;28;20031;-61
2021/09/13 12:07:44;;;;;;;2.92;2.72;;;;;;;;;;5094078;28;20238;-60
2021/09/13 12:10:10;;;;;;;2.63;2.35;;;;;;;;;;5084715;28;20017;-61
2021/09/13 12:12:36;;;;;;;3.40;2.80;;;;;;;;;;5075779;28;20019;-62
2021/09/13 12:15:04;;;;;;;3.85;2.72;;;;;;;;;;5079552;28;20095;-61
2021/09/13 12:17:46;;;;;;;4.43;3.22;;;;;;;;;;5091335;28;20023;-61
2021/09/13 12:20:15;;;;;;;6.22;3.33;;;;;;;;;;5076831;28;20020;-61
2021/09/13 12:22:40;;;;;;;3.97;2.85;;;;;;;;;;5081954;28;20099;-62
2021/09/13 12:25:24;;;;;;;3.78;3.40;;;;;;;;;;5086207;28;20059;-62
2021/09/13 12:27:50;;;;;;;3.17;2.97;;;;;;;;;;5079902;28;20514;-62
2021/09/13 12:30:21;;;;;;;3.75;3.38;;;;;;;;;;5076392;28;20374;-62
2021/09/13 12:33:00;;;;;;;3.88;2.88;;;;;;;;;;5083825;28;20020;-62
2021/09/13 12:35:29;;;;;;;2.97;2.20;;;;;;;;;;5079273;28;20031;-62
2021/09/13 12:37:54;;;;;;;3.20;2.28;;;;;;;;;;5078880;28;20016;-62
2021/09/13 12:40:20;;;;;;;2.47;2.20;;;;;;;;;;5084776;28;20031;-61
2021/09/13 12:42:58;;;;;;;3.40;3.10;;;;;;;;;;5083288;28;20157;-61
2021/09/13 12:45:28;;;;;;;3.38;3.08;;;;;;;;;;5073844;28;20023;-62
2021/09/13 12:47:55;;;;;;;3.15;2.85;;;;;;;;;;5076288;28;20020;-61
2021/09/13 12:50:28;;;;;;;2.53;2.17;;;;;;;;;;5083329;28;20410;-61
2021/09/13 12:52:53;;;;;;;3.70;2.40;;;;;;;;;;5092579;28;20016;-61
2021/09/13 12:55:22;;;;;;;3.88;3.40;;;;;;;;;;5077705;28;20368;-61
2021/09/13 12:57:47;;;;;;;3.35;2.90;;;;;;;;;;5078148;28;20033;-61
2021/09/13 13:00:13;;;;;;;4.20;3.00;;;;;;;;;;5084603;28;20024;-60
2021/09/13 13:02:39;;;;;;;2.63;2.42;;;;;;;;;;5088984;28;20020;-62
2021/09/13 13:05:05;;;;;;;3.25;2.95;;;;;;;;;;5077545;28;20017;-62
2021/09/13 13:07:31;;;;;;;3.25;3.00;;;;;;;;;;5076815;28;20074;-61
2021/09/13 13:09:56;;;;;;;5.97;3.40;;;;;;;;;;5076410;28;20017;-61
2021/09/13 13:12:22;;;;;;;3.63;2.63;;;;;;;;;;5078265;28;20131;-61
2021/09/13 13:14:47;;;;;;;4.28;3.35;;;;;;;;;;5092060;28;20681;-60
2021/09/13 13:17:13;;;;;;;3.90;3.60;;;;;;;;;;5080042;28;20111;-60
2021/09/13 13:19:38;;;;;;;2.42;2.22;;;;;;;;;;5089300;28;20103;-61
2021/09/13 13:22:04;;;;;;;4.23;2.33;;;;;;;;;;5081005;28;20012;-61
2021/09/13 13:24:29;;;;;;;4.70;2.83;;;;;;;;;;5072485;28;20067;-61
2021/09/13 13:26:54;;;;;;;2.53;2.33;;;;;;;;;;5077805;28;20035;-61
2021/09/13 13:29:21;;;;;;;2.67;2.10;;;;;;;;;;5075116;28;20023;-61
2021/09/13 13:31:46;;;;;;;2.72;1.90;;;;;;;;;;5071840;28;20013;-61
2021/09/13 13:34:11;;;;;;;3.00;2.43;;;;;;;;;;5074092;28;20028;-62
2021/09/13 13:36:37;;;;;;;5.80;2.85;;;;;;;;;;5076207;28;20024;-62
2021/09/13 13:39:03;;;;;;;2.72;2.47;;;;;;;;;;5076734;28;20039;-60
2021/09/13 13:41:28;;;;;;;14.23;3.90;;;;;;;;;;5077264;28;20028;-61
2021/09/13 13:43:53;;;;;;;4.07;2.40;;;;;;;;;;5073851;28;20375;-60
2021/09/13 13:46:19;;;;;;;3.20;2.03;;;;;;;;;;5082178;28;20479;-61
2021/09/13 13:48:44;;;;;;;2.45;2.17;;;;;;;;;;5073203;28;20807;-61
2021/09/13 13:51:09;;;;;;;3.07;1.80;;;;;;;;;;5074379;28;20020;-61
2021/09/13 13:53:34;;;;;;;2.17;1.93;;;;;;;;;;5072242;28;20405;-61
2021/09/13 13:55:59;;;;;;;2.43;1.70;;;;;;;;;;5071362;28;20737;-61
2021/09/13 13:58:25;;;;;;;3.27;1.90;;;;;;;;;;5084442;28;20021;-61
2021/09/13 14:00:50;;;;;;;4.97;2.30;;;;;;;;;;5070996;28;20279;-61
2021/09/13 14:03:17;;;;;;;2.30;2.10;;;;;;;;;;5078753;28;20265;-61
2021/09/13 14:05:43;;;;;;;2.85;2.13;;;;;;;;;;5076442;28;20081;-61
2021/09/13 14:08:08;;;;;;;2.58;2.25;;;;;;;;;;5091468;28;20035;-62
2021/09/13 14:10:33;;;;;;;3.60;2.60;;;;;;;;;;5087056;28;20031;-61
2021/09/13 14:12:58;;;;;;;2.53;2.33;;;;;;;;;;5073139;28;20115;-61
2021/09/13 14:15:25;;;;;;;2.60;2.40;;;;;;;;;;5084632;28;20107;-62
2021/09/13 14:17:50;;;;;;;2.95;1.85;;;;;;;;;;5086183;28;20071;-63
2021/09/13 14:20:16;;;;;;;3.95;1.88;;;;;;;;;;5083902;28;20043;-61
2021/09/13 14:22:41;;;;;;;2.83;2.07;;;;;;;;;;5075865;28;20036;-61
2021/09/13 14:25:07;;;;;;;3.38;1.65;;;;;;;;;;5087719;28;20337;-61
2021/09/13 14:27:33;;;;;;;2.80;1.67;;;;;;;;;;5079922;28;20060;-62
2021/09/13 14:29:58;;;;;;;4.00;2.10;;;;;;;;;;5073910;28;20023;-62
2021/09/13 14:32:23;;;;;;;1.90;1.80;;;;;;;;;;5089298;28;20031;-62
2021/09/13 14:34:48;;;;;;;1.98;1.77;;;;;;;;;;5073871;28;20029;-62
2021/09/13 14:37:14;;;;;;;2.47;2.00;;;;;;;;;;5079916;28;20081;-63
2021/09/13 14:39:40;;;;;;;3.55;2.47;;;;;;;;;;5086615;28;20287;-62
2021/09/13 14:42:06;;;;;;;3.58;2.80;;;;;;;;;;5072529;28;20364;-62